sensor_id;sensor_type;location;lat;lon;timestamp;pressure;altitude;pressure_sealevel;temperature;humidity
33153;BME280;19509;43.862;26.176;2023-02-11T00:01:14;102920.09;;;-8.93;84.88
33153;BME280;19509;43.862;26.176;2023-02-11T00:03:43;102923.31;;;-8.78;83.84
33153;BME280;19509;43.862;26.176;2023-02-11T00:06:10;102911.31;;;-8.89;84.72
33153;BME280;19509;43.862;26.176;2023-02-11T00:08:36;102913.88;;;-8.87;83.98
33153;BME280;19509;43.862;26.176;2023-02-11T00:11:02;102928.69;;;-8.88;84.42
33153;BME280;19509;43.862;26.176;2023-02-11T00:13:28;102921.91;;;-8.96;84.61
33153;BME280;19509;43.862;26.176;2023-02-11T00:15:55;102915.59;;;-8.85;84.40
33153;BME280;19509;43.862;26.176;2023-02-11T00:18:21;102923.56;;;-8.92;84.55
33153;BME280;19509;43.862;26.176;2023-02-11T00:20:47;102919.41;;;-9.04;84.32
33153;BME280;19509;43.862;26.176;2023-02-11T00:23:13;102921.31;;;-9.12;85.14
33153;BME280;19509;43.862;26.176;2023-02-11T00:25:42;102910.88;;;-9.12;84.06
33153;BME280;19509;43.862;26.176;2023-02-11T00:28:09;102912.63;;;-9.14;84.29
33153;BME280;19509;43.862;26.176;2023-02-11T00:30:34;102900.28;;;-9.05;84.82
33153;BME280;19509;43.862;26.176;2023-02-11T00:33:00;102895.16;;;-9.09;84.48
33153;BME280;19509;43.862;26.176;2023-02-11T00:35:26;102895.22;;;-9.12;85.08
33153;BME280;19509;43.862;26.176;2023-02-11T00:37:53;102896.13;;;-9.13;84.30
33153;BME280;19509;43.862;26.176;2023-02-11T00:40:19;102888.16;;;-9.06;84.10
33153;BME280;19509;43.862;26.176;2023-02-11T00:42:45;102885.84;;;-9.22;84.81
33153;BME280;19509;43.862;26.176;2023-02-11T00:45:10;102883.19;;;-9.19;84.52
33153;BME280;19509;43.862;26.176;2023-02-11T00:47:36;102883.19;;;-9.19;85.10
33153;BME280;19509;43.862;26.176;2023-02-11T00:50:02;102881.28;;;-9.11;85.13
33153;BME280;19509;43.862;26.176;2023-02-11T00:52:33;102881.22;;;-9.07;84.87
33153;BME280;19509;43.862;26.176;2023-02-11T00:54:59;102874.25;;;-9.08;84.63
33153;BME280;19509;43.862;26.176;2023-02-11T00:57:24;102867.13;;;-8.96;84.41
33153;BME280;19509;43.862;26.176;2023-02-11T00:59:50;102869.59;;;-8.90;83.74
33153;BME280;19509;43.862;26.176;2023-02-11T01:02:16;102880.97;;;-8.94;84.62
33153;BME280;19509;43.862;26.176;2023-02-11T01:04:41;102878.41;;;-8.96;84.84
33153;BME280;19509;43.862;26.176;2023-02-11T01:07:07;102874.97;;;-8.98;84.41
33153;BME280;19509;43.862;26.176;2023-02-11T01:09:32;102875.91;;;-9.02;84.54
33153;BME280;19509;43.862;26.176;2023-02-11T01:11:58;102876.00;;;-9.08;85.20
33153;BME280;19509;43.862;26.176;2023-02-11T01:14:24;102880.38;;;-9.09;84.86
33153;BME280;19509;43.862;26.176;2023-02-11T01:16:49;102880.38;;;-9.09;85.12
33153;BME280;19509;43.862;26.176;2023-02-11T01:19:15;102879.38;;;-9.00;84.72
33153;BME280;19509;43.862;26.176;2023-02-11T01:21:41;102877.56;;;-8.96;84.17
33153;BME280;19509;43.862;26.176;2023-02-11T01:24:06;102875.00;;;-9.01;84.17
33153;BME280;19509;43.862;26.176;2023-02-11T01:26:32;102875.91;;;-9.03;84.60
33153;BME280;19509;43.862;26.176;2023-02-11T01:28:57;102873.41;;;-9.07;84.58
33153;BME280;19509;43.862;26.176;2023-02-11T01:31:25;102877.66;;;-9.04;84.79
33153;BME280;19509;43.862;26.176;2023-02-11T01:33:50;102877.72;;;-9.07;84.44
33153;BME280;19509;43.862;26.176;2023-02-11T01:36:16;102884.00;;;-9.17;84.57
33153;BME280;19509;43.862;26.176;2023-02-11T01:38:42;102878.81;;;-9.19;84.78
33153;BME280;19509;43.862;26.176;2023-02-11T01:41:10;102876.88;;;-9.08;84.85
33153;BME280;19509;43.862;26.176;2023-02-11T01:43:40;102875.06;;;-9.04;84.26
33153;BME280;19509;43.862;26.176;2023-02-11T01:46:13;102880.28;;;-9.02;84.50
33153;BME280;19509;43.862;26.176;2023-02-11T01:48:44;102881.94;;;-8.98;84.19
33153;BME280;19509;43.862;26.176;2023-02-11T01:51:22;102874.19;;;-9.03;83.71
33153;BME280;19509;43.862;26.176;2023-02-11T01:53:49;102882.88;;;-9.02;83.14
33153;BME280;19509;43.862;26.176;2023-02-11T01:56:36;102884.78;;;-9.12;83.43
33153;BME280;19509;43.862;26.176;2023-02-11T01:59:27;102876.31;;;-9.23;84.30
33153;BME280;19509;43.862;26.176;2023-02-11T02:02:00;102881.75;;;-9.37;84.02
33153;BME280;19509;43.862;26.176;2023-02-11T02:04:31;102890.50;;;-9.40;83.95
33153;BME280;19509;43.862;26.176;2023-02-11T02:07:11;102880.13;;;-9.44;84.18
33153;BME280;19509;43.862;26.176;2023-02-11T02:09:42;102873.28;;;-9.50;84.69
33153;BME280;19509;43.862;26.176;2023-02-11T02:12:09;102867.16;;;-9.49;85.03
33153;BME280;19509;43.862;26.176;2023-02-11T02:14:39;102867.78;;;-9.35;84.89
33153;BME280;19509;43.862;26.176;2023-02-11T02:17:05;102868.66;;;-9.34;84.00
33153;BME280;19509;43.862;26.176;2023-02-11T02:20:08;102877.25;;;-9.29;83.86
33153;BME280;19509;43.862;26.176;2023-02-11T02:23:24;102873.09;;;-9.39;84.37
33153;BME280;19509;43.862;26.176;2023-02-11T02:26:02;102874.84;;;-9.40;85.42
33153;BME280;19509;43.862;26.176;2023-02-11T02:28:50;102873.03;;;-9.36;84.36
33153;BME280;19509;43.862;26.176;2023-02-11T02:34:06;102857.31;;;-9.30;84.87
33153;BME280;19509;43.862;26.176;2023-02-11T02:36:42;102852.84;;;-9.23;84.18
33153;BME280;19509;43.862;26.176;2023-02-11T02:39:17;102853.66;;;-9.21;83.85
33153;BME280;19509;43.862;26.176;2023-02-11T02:41:45;102856.53;;;-9.37;84.36
33153;BME280;19509;43.862;26.176;2023-02-11T02:44:12;102855.69;;;-9.37;84.57
33153;BME280;19509;43.862;26.176;2023-02-11T02:46:38;102852.25;;;-9.41;84.26
33153;BME280;19509;43.862;26.176;2023-02-11T02:49:06;102858.28;;;-9.37;84.33
33153;BME280;19509;43.862;26.176;2023-02-11T03:10:46;102846.56;;;-9.13;84.24
33153;BME280;19509;43.862;26.176;2023-02-11T03:13:16;102853.50;;;-9.12;85.12
33153;BME280;19509;43.862;26.176;2023-02-11T03:15:52;102842.94;;;-9.06;83.95
33153;BME280;19509;43.862;26.176;2023-02-11T03:18:21;102844.69;;;-9.07;84.26
33153;BME280;19509;43.862;26.176;2023-02-11T03:20:50;102848.81;;;-8.95;83.98
33153;BME280;19509;43.862;26.176;2023-02-11T03:23:34;102849.75;;;-8.99;84.38
33153;BME280;19509;43.862;26.176;2023-02-11T03:26:25;102844.56;;;-8.99;83.80
33153;BME280;19509;43.862;26.176;2023-02-11T03:29:22;102841.94;;;-9.00;83.58
33153;BME280;19509;43.862;26.176;2023-02-11T03:34:58;102838.53;;;-9.04;83.35
33153;BME280;19509;43.862;26.176;2023-02-11T03:37:39;102840.34;;;-9.08;82.91
33153;BME280;19509;43.862;26.176;2023-02-11T03:40:12;102840.50;;;-9.15;83.37
33153;BME280;19509;43.862;26.176;2023-02-11T03:42:50;102837.09;;;-9.20;84.39
33153;BME280;19509;43.862;26.176;2023-02-11T03:45:19;102835.34;;;-9.18;83.82
33153;BME280;19509;43.862;26.176;2023-02-11T03:47:49;102836.06;;;-9.10;83.87
33153;BME280;19509;43.862;26.176;2023-02-11T03:50:17;102829.06;;;-9.07;83.55
33153;BME280;19509;43.862;26.176;2023-02-11T03:52:45;102827.09;;;-8.95;83.06
33153;BME280;19509;43.862;26.176;2023-02-11T03:55:15;102826.25;;;-8.97;84.27
33153;BME280;19509;43.862;26.176;2023-02-11T03:57:41;102824.63;;;-9.03;83.39
33153;BME280;19509;43.862;26.176;2023-02-11T04:00:07;102830.50;;;-8.93;83.60
33153;BME280;19509;43.862;26.176;2023-02-11T04:02:35;102833.22;;;-8.98;82.95
33153;BME280;19509;43.862;26.176;2023-02-11T04:05:01;102830.72;;;-9.02;83.20
33153;BME280;19509;43.862;26.176;2023-02-11T04:07:27;102829.91;;;-9.06;83.91
33153;BME280;19509;43.862;26.176;2023-02-11T04:09:53;102828.16;;;-9.06;83.02
33153;BME280;19509;43.862;26.176;2023-02-11T04:12:19;102834.44;;;-9.16;83.91
33153;BME280;19509;43.862;26.176;2023-02-11T04:14:44;102828.31;;;-9.15;83.27
33153;BME280;19509;43.862;26.176;2023-02-11T04:17:11;102825.72;;;-9.15;83.20
33153;BME280;19509;43.862;26.176;2023-02-11T04:19:36;102827.53;;;-9.18;84.02
33153;BME280;19509;43.862;26.176;2023-02-11T04:22:03;102823.09;;;-9.15;83.20
33153;BME280;19509;43.862;26.176;2023-02-11T04:24:29;102823.09;;;-9.15;83.08
33153;BME280;19509;43.862;26.176;2023-02-11T04:26:55;102817.94;;;-9.18;84.07
33153;BME280;19509;43.862;26.176;2023-02-11T04:29:20;102815.47;;;-9.25;83.40
33153;BME280;19509;43.862;26.176;2023-02-11T04:31:46;102811.97;;;-9.24;84.27
33153;BME280;19509;43.862;26.176;2023-02-11T04:34:12;102813.56;;;-9.17;83.33
33153;BME280;19509;43.862;26.176;2023-02-11T04:36:38;102817.03;;;-9.15;84.08
33153;BME280;19509;43.862;26.176;2023-02-11T04:39:04;102819.63;;;-9.15;83.20
33153;BME280;19509;43.862;26.176;2023-02-11T04:41:29;102819.78;;;-9.23;83.79
33153;BME280;19509;43.862;26.176;2023-02-11T04:43:55;102817.22;;;-9.26;83.53
33153;BME280;19509;43.862;26.176;2023-02-11T04:46:20;102824.16;;;-9.23;83.65
33153;BME280;19509;43.862;26.176;2023-02-11T04:48:46;102813.72;;;-9.23;83.02
33153;BME280;19509;43.862;26.176;2023-02-11T04:51:12;102821.59;;;-9.28;83.79
33153;BME280;19509;43.862;26.176;2023-02-11T04:53:37;102823.47;;;-9.35;83.18
33153;BME280;19509;43.862;26.176;2023-02-11T04:56:03;102824.31;;;-9.34;83.29
33153;BME280;19509;43.862;26.176;2023-02-11T04:58:29;102819.09;;;-9.34;83.63
33153;BME280;19509;43.862;26.176;2023-02-11T05:00:54;102819.19;;;-9.39;83.53
33153;BME280;19509;43.862;26.176;2023-02-11T05:03:19;102818.50;;;-9.48;83.61
33153;BME280;19509;43.862;26.176;2023-02-11T05:05:45;102824.69;;;-9.54;84.52
33153;BME280;19509;43.862;26.176;2023-02-11T05:08:11;102830.66;;;-9.47;84.36
33153;BME280;19509;43.862;26.176;2023-02-11T05:10:37;102834.03;;;-9.42;84.17
33153;BME280;19509;43.862;26.176;2023-02-11T05:13:02;102836.78;;;-9.50;83.43
33153;BME280;19509;43.862;26.176;2023-02-11T05:15:28;102833.31;;;-9.50;84.68
33153;BME280;19509;43.862;26.176;2023-02-11T05:17:54;102832.44;;;-9.51;83.61
33153;BME280;19509;43.862;26.176;2023-02-11T05:20:20;102826.41;;;-9.53;84.03
33153;BME280;19509;43.862;26.176;2023-02-11T05:22:46;102825.44;;;-9.47;82.76
33153;BME280;19509;43.862;26.176;2023-02-11T05:25:12;102829.81;;;-9.49;83.43
33153;BME280;19509;43.862;26.176;2023-02-11T05:27:37;102830.56;;;-9.43;84.03
33153;BME280;19509;43.862;26.176;2023-02-11T05:30:04;102823.59;;;-9.42;83.68
33153;BME280;19509;43.862;26.176;2023-02-11T05:32:30;102821.91;;;-9.43;83.06
33153;BME280;19509;43.862;26.176;2023-02-11T05:34:55;102827.03;;;-9.39;83.23
33153;BME280;19509;43.862;26.176;2023-02-11T05:37:20;102832.25;;;-8.94;83.66
33153;BME280;19509;43.862;26.176;2023-02-11T05:39:46;102833.56;;;-8.71;81.58
33153;BME280;19509;43.862;26.176;2023-02-11T05:42:12;102836.56;;;-8.48;80.85
33153;BME280;19509;43.862;26.176;2023-02-11T05:44:38;102835.97;;;-7.84;79.45
33153;BME280;19509;43.862;26.176;2023-02-11T05:47:03;102840.53;;;-7.23;76.60
33153;BME280;19509;43.862;26.176;2023-02-11T05:49:29;102839.22;;;-6.75;73.60
33153;BME280;19509;43.862;26.176;2023-02-11T05:51:54;102848.94;;;-6.49;73.26
33153;BME280;19509;43.862;26.176;2023-02-11T05:54:20;102854.66;;;-6.07;71.23
33153;BME280;19509;43.862;26.176;2023-02-11T05:56:45;102853.19;;;-5.36;68.68
33153;BME280;19509;43.862;26.176;2023-02-11T05:59:13;102856.47;;;-5.04;67.81
33153;BME280;19509;43.862;26.176;2023-02-11T06:01:39;102855.34;;;-4.03;64.98
33153;BME280;19509;43.862;26.176;2023-02-11T06:04:04;102854.19;;;-3.74;63.35
33153;BME280;19509;43.862;26.176;2023-02-11T06:06:30;102858.63;;;-3.54;63.21
33153;BME280;19509;43.862;26.176;2023-02-11T06:08:55;102860.63;;;-2.77;60.88
33153;BME280;19509;43.862;26.176;2023-02-11T06:11:21;102849.19;;;-1.64;57.51
33153;BME280;19509;43.862;26.176;2023-02-11T06:13:46;102846.38;;;-0.75;54.50
33153;BME280;19509;43.862;26.176;2023-02-11T06:16:12;102853.88;;;-1.17;54.01
33153;BME280;19509;43.862;26.176;2023-02-11T06:18:37;102861.41;;;-2.75;57.80
33153;BME280;19509;43.862;26.176;2023-02-11T06:21:07;102857.47;;;-4.35;63.07
33153;BME280;19509;43.862;26.176;2023-02-11T06:23:33;102864.19;;;-5.51;67.21
33153;BME280;19509;43.862;26.176;2023-02-11T06:26:04;102863.66;;;-6.15;70.98
33153;BME280;19509;43.862;26.176;2023-02-11T06:28:30;102857.69;;;-6.50;72.55
33153;BME280;19509;43.862;26.176;2023-02-11T06:30:56;102861.78;;;-6.71;74.44
33153;BME280;19509;43.862;26.176;2023-02-11T06:33:22;102847.63;;;-6.64;74.74
33153;BME280;19509;43.862;26.176;2023-02-11T06:35:47;102850.19;;;-6.62;74.80
33153;BME280;19509;43.862;26.176;2023-02-11T06:38:13;102854.22;;;-6.51;75.56
33153;BME280;19509;43.862;26.176;2023-02-11T06:40:39;102841.91;;;-6.47;76.62
33153;BME280;19509;43.862;26.176;2023-02-11T06:43:04;102844.94;;;-6.33;76.75
33153;BME280;19509;43.862;26.176;2023-02-11T06:45:30;102838.34;;;-6.16;77.03
33153;BME280;19509;43.862;26.176;2023-02-11T06:47:56;102837.06;;;-6.03;76.88
33153;BME280;19509;43.862;26.176;2023-02-11T06:50:21;102839.91;;;-5.84;76.67
33153;BME280;19509;43.862;26.176;2023-02-11T06:52:47;102839.38;;;-5.67;76.75
33153;BME280;19509;43.862;26.176;2023-02-11T06:55:12;102837.94;;;-5.50;77.19
33153;BME280;19509;43.862;26.176;2023-02-11T06:57:38;102834.88;;;-5.37;76.31
33153;BME280;19509;43.862;26.176;2023-02-11T07:00:04;102831.56;;;-5.17;76.24
33153;BME280;19509;43.862;26.176;2023-02-11T07:02:30;102825.25;;;-5.12;75.82
33153;BME280;19509;43.862;26.176;2023-02-11T07:04:56;102840.34;;;-4.93;76.59
33153;BME280;19509;43.862;26.176;2023-02-11T07:07:21;102837.38;;;-4.84;75.90
33153;BME280;19509;43.862;26.176;2023-02-11T07:09:47;102846.53;;;-4.71;75.79
33153;BME280;19509;43.862;26.176;2023-02-11T07:12:12;102837.34;;;-4.59;75.97
33153;BME280;19509;43.862;26.176;2023-02-11T07:14:38;102840.16;;;-4.40;74.82
33153;BME280;19509;43.862;26.176;2023-02-11T07:17:03;102837.72;;;-4.23;74.99
33153;BME280;19509;43.862;26.176;2023-02-11T07:19:29;102833.50;;;-4.05;74.93
33153;BME280;19509;43.862;26.176;2023-02-11T07:21:55;102833.16;;;-3.96;75.28
33153;BME280;19509;43.862;26.176;2023-02-11T07:24:20;102836.81;;;-3.78;75.09
33153;BME280;19509;43.862;26.176;2023-02-11T07:26:46;102838.81;;;-3.63;74.42
33153;BME280;19509;43.862;26.176;2023-02-11T07:29:11;102838.97;;;-3.45;74.10
33153;BME280;19509;43.862;26.176;2023-02-11T07:31:37;102838.53;;;-3.35;73.81
33153;BME280;19509;43.862;26.176;2023-02-11T07:34:02;102833.50;;;-3.20;73.87
33153;BME280;19509;43.862;26.176;2023-02-11T07:36:30;102827.13;;;-3.15;73.68
33153;BME280;19509;43.862;26.176;2023-02-11T07:38:56;102826.66;;;-3.04;73.16
33153;BME280;19509;43.862;26.176;2023-02-11T07:41:24;102826.41;;;-2.98;74.18
33153;BME280;19509;43.862;26.176;2023-02-11T07:43:50;102826.44;;;-2.79;73.45
33153;BME280;19509;43.862;26.176;2023-02-11T07:46:21;102819.91;;;-2.70;73.51
33153;BME280;19509;43.862;26.176;2023-02-11T07:48:47;102818.06;;;-2.49;72.41
33153;BME280;19509;43.862;26.176;2023-02-11T07:51:15;102816.00;;;-2.43;72.35
33153;BME280;19509;43.862;26.176;2023-02-11T07:53:42;102807.44;;;-2.29;71.43
33153;BME280;19509;43.862;26.176;2023-02-11T07:56:08;102811.06;;;-2.12;71.50
33153;BME280;19509;43.862;26.176;2023-02-11T07:58:34;102796.63;;;-2.05;72.44
33153;BME280;19509;43.862;26.176;2023-02-11T08:01:21;102787.91;;;-1.88;71.90
33153;BME280;19509;43.862;26.176;2023-02-11T08:03:49;102789.00;;;-1.75;71.45
33153;BME280;19509;43.862;26.176;2023-02-11T08:06:16;102783.28;;;-1.66;71.30
33153;BME280;19509;43.862;26.176;2023-02-11T08:08:43;102784.72;;;-1.60;70.82
33153;BME280;19509;43.862;26.176;2023-02-11T08:11:26;102778.19;;;-1.53;70.45
33153;BME280;19509;43.862;26.176;2023-02-11T08:13:52;102779.91;;;-1.35;69.97
33153;BME280;19509;43.862;26.176;2023-02-11T08:16:24;102767.63;;;-1.36;68.96
33153;BME280;19509;43.862;26.176;2023-02-11T08:18:50;102770.66;;;-1.26;69.40
33153;BME280;19509;43.862;26.176;2023-02-11T08:21:16;102764.28;;;-1.22;69.34
33153;BME280;19509;43.862;26.176;2023-02-11T08:23:43;102755.78;;;-1.11;69.20
33153;BME280;19509;43.862;26.176;2023-02-11T08:26:12;102778.53;;;-1.09;69.06
33153;BME280;19509;43.862;26.176;2023-02-11T08:28:39;102769.97;;;-0.97;69.31
33153;BME280;19509;43.862;26.176;2023-02-11T08:31:11;102768.63;;;-0.88;68.64
33153;BME280;19509;43.862;26.176;2023-02-11T08:33:37;102762.66;;;-0.91;67.64
33153;BME280;19509;43.862;26.176;2023-02-11T08:36:16;102769.16;;;-0.81;68.73
33153;BME280;19509;43.862;26.176;2023-02-11T08:38:42;102762.50;;;-0.73;68.36
33153;BME280;19509;43.862;26.176;2023-02-11T08:41:08;102761.22;;;-0.65;67.70
33153;BME280;19509;43.862;26.176;2023-02-11T08:43:34;102768.56;;;-0.55;67.94
33153;BME280;19509;43.862;26.176;2023-02-11T08:46:00;102759.38;;;-0.63;66.97
33153;BME280;19509;43.862;26.176;2023-02-11T08:48:26;102761.84;;;-0.44;67.25
33153;BME280;19509;43.862;26.176;2023-02-11T08:50:53;102766.56;;;-0.34;67.03
33153;BME280;19509;43.862;26.176;2023-02-11T08:53:19;102764.75;;;-0.33;67.03
33153;BME280;19509;43.862;26.176;2023-02-11T08:55:49;102759.03;;;-0.26;66.33
33153;BME280;19509;43.862;26.176;2023-02-11T08:58:14;102760.31;;;-0.17;66.32
33153;BME280;19509;43.862;26.176;2023-02-11T09:00:40;102760.03;;;-0.12;66.38
33153;BME280;19509;43.862;26.176;2023-02-11T09:03:07;102765.00;;;-0.06;66.53
33153;BME280;19509;43.862;26.176;2023-02-11T09:05:33;102765.16;;;-0.09;65.95
33153;BME280;19509;43.862;26.176;2023-02-11T09:07:58;102755.50;;;-0.10;66.03
33153;BME280;19509;43.862;26.176;2023-02-11T09:10:24;102757.78;;;-0.04;66.61
33153;BME280;19509;43.862;26.176;2023-02-11T09:12:49;102748.84;;;-0.02;66.76
33153;BME280;19509;43.862;26.176;2023-02-11T09:15:15;102752.47;;;0.12;66.29
33153;BME280;19509;43.862;26.176;2023-02-11T09:17:41;102752.78;;;0.21;66.17
33153;BME280;19509;43.862;26.176;2023-02-11T09:20:06;102761.00;;;0.17;66.03
33153;BME280;19509;43.862;26.176;2023-02-11T09:22:32;102752.63;;;0.25;65.80
33153;BME280;19509;43.862;26.176;2023-02-11T09:24:57;102743.72;;;0.26;66.33
33153;BME280;19509;43.862;26.176;2023-02-11T09:27:23;102738.44;;;0.26;66.07
33153;BME280;19509;43.862;26.176;2023-02-11T09:29:49;102737.97;;;0.33;65.71
33153;BME280;19509;43.862;26.176;2023-02-11T09:32:14;102737.13;;;0.33;65.81
33153;BME280;19509;43.862;26.176;2023-02-11T09:34:40;102727.69;;;0.43;65.71
33153;BME280;19509;43.862;26.176;2023-02-11T09:37:05;102726.00;;;0.56;65.24
33153;BME280;19509;43.862;26.176;2023-02-11T09:39:31;102737.56;;;0.55;64.79
33153;BME280;19509;43.862;26.176;2023-02-11T09:44:33;102718.91;;;0.71;64.50
33153;BME280;19509;43.862;26.176;2023-02-11T09:47:06;102715.13;;;0.61;64.45
33153;BME280;19509;43.862;26.176;2023-02-11T09:49:41;102702.16;;;0.70;64.87
33153;BME280;19509;43.862;26.176;2023-02-11T09:54:59;102696.78;;;0.86;63.81
33153;BME280;19509;43.862;26.176;2023-02-11T09:57:35;102685.59;;;0.81;62.75
33153;BME280;19509;43.862;26.176;2023-02-11T10:00:15;102681.44;;;0.77;62.41
33153;BME280;19509;43.862;26.176;2023-02-11T10:03:46;102686.66;;;0.79;62.73
33153;BME280;19509;43.862;26.176;2023-02-11T10:08:58;102673.66;;;0.74;62.96
33153;BME280;19509;43.862;26.176;2023-02-11T10:22:21;102645.41;;;1.02;61.74
33153;BME280;19509;43.862;26.176;2023-02-11T10:24:55;102634.25;;;1.11;61.19
33153;BME280;19509;43.862;26.176;2023-02-11T10:27:29;102626.97;;;1.00;62.04
33153;BME280;19509;43.862;26.176;2023-02-11T10:29:59;102617.59;;;1.09;61.64
33153;BME280;19509;43.862;26.176;2023-02-11T10:35:02;102613.13;;;1.09;61.88
33153;BME280;19509;43.862;26.176;2023-02-11T10:37:29;102611.59;;;1.05;61.28
33153;BME280;19509;43.862;26.176;2023-02-11T10:39:55;102608.38;;;1.14;61.86
33153;BME280;19509;43.862;26.176;2023-02-11T10:42:20;102608.44;;;1.27;60.57
33153;BME280;19509;43.862;26.176;2023-02-11T10:45:01;102603.78;;;1.31;60.96
33153;BME280;19509;43.862;26.176;2023-02-11T10:47:30;102598.16;;;1.35;61.26
33153;BME280;19509;43.862;26.176;2023-02-11T10:49:58;102591.94;;;1.22;60.31
33153;BME280;19509;43.862;26.176;2023-02-11T10:52:28;102581.41;;;1.35;61.55
33153;BME280;19509;43.862;26.176;2023-02-11T10:55:02;102583.03;;;1.50;61.34
33153;BME280;19509;43.862;26.176;2023-02-11T10:57:40;102577.00;;;1.61;60.48
33153;BME280;19509;43.862;26.176;2023-02-11T11:02:54;102575.13;;;1.76;59.50
33153;BME280;19509;43.862;26.176;2023-02-11T11:05:28;102571.50;;;1.64;58.45
33153;BME280;19509;43.862;26.176;2023-02-11T11:08:12;102567.69;;;1.94;59.84
33153;BME280;19509;43.862;26.176;2023-02-11T11:10:43;102567.50;;;1.84;59.27
33153;BME280;19509;43.862;26.176;2023-02-11T11:16:50;102564.94;;;1.82;58.54
33153;BME280;19509;43.862;26.176;2023-02-11T11:24:38;102557.19;;;1.67;59.59
33153;BME280;19509;43.862;26.176;2023-02-11T11:27:06;102554.81;;;1.62;59.67
33153;BME280;19509;43.862;26.176;2023-02-11T11:29:52;102546.56;;;1.67;59.40
33153;BME280;19509;43.862;26.176;2023-02-11T11:32:30;102541.91;;;1.70;59.59
33153;BME280;19509;43.862;26.176;2023-02-11T11:35:03;102534.88;;;1.82;59.91
33153;BME280;19509;43.862;26.176;2023-02-11T11:37:34;102527.22;;;1.90;59.25
33153;BME280;19509;43.862;26.176;2023-02-11T11:42:40;102522.56;;;1.94;59.08
33153;BME280;19509;43.862;26.176;2023-02-11T11:47:42;102514.38;;;1.97;59.10
33153;BME280;19509;43.862;26.176;2023-02-11T11:55:23;102498.94;;;2.27;60.11
33153;BME280;19509;43.862;26.176;2023-02-11T11:57:49;102491.38;;;2.34;59.18
33153;BME280;19509;43.862;26.176;2023-02-11T12:00:20;102484.75;;;2.52;59.05
33153;BME280;19509;43.862;26.176;2023-02-11T12:10:47;102463.72;;;2.73;57.52
33153;BME280;19509;43.862;26.176;2023-02-11T12:13:23;102458.97;;;2.66;57.83
33153;BME280;19509;43.862;26.176;2023-02-11T12:27:43;102435.09;;;2.77;57.51
33153;BME280;19509;43.862;26.176;2023-02-11T12:30:17;102424.50;;;2.88;57.13
33153;BME280;19509;43.862;26.176;2023-02-11T12:32:57;102423.84;;;2.73;56.83
33153;BME280;19509;43.862;26.176;2023-02-11T12:35:38;102423.50;;;2.78;56.17
33153;BME280;19509;43.862;26.176;2023-02-11T12:41:03;102419.53;;;2.83;55.29
33153;BME280;19509;43.862;26.176;2023-02-11T12:43:42;102412.75;;;2.79;54.94
33153;BME280;19509;43.862;26.176;2023-02-11T12:49:13;102411.84;;;2.68;55.54
33153;BME280;19509;43.862;26.176;2023-02-11T12:53:06;102405.38;;;2.72;54.66
33153;BME280;19509;43.862;26.176;2023-02-11T12:55:06;102392.84;;;2.61;55.59
33153;BME280;19509;43.862;26.176;2023-02-11T12:57:35;102389.03;;;2.65;56.07
33153;BME280;19509;43.862;26.176;2023-02-11T13:05:39;102387.00;;;2.80;53.95
33153;BME280;19509;43.862;26.176;2023-02-11T13:08:35;102386.88;;;2.81;52.92
33153;BME280;19509;43.862;26.176;2023-02-11T13:11:23;102376.59;;;2.77;53.23
33153;BME280;19509;43.862;26.176;2023-02-11T13:14:25;102367.41;;;2.70;53.32
33153;BME280;19509;43.862;26.176;2023-02-11T13:16:49;102361.50;;;2.77;53.66
33153;BME280;19509;43.862;26.176;2023-02-11T13:19:38;102354.50;;;2.88;53.77
33153;BME280;19509;43.862;26.176;2023-02-11T13:22:32;102341.97;;;2.90;53.53
33153;BME280;19509;43.862;26.176;2023-02-11T13:25:13;102335.28;;;2.84;51.75
33153;BME280;19509;43.862;26.176;2023-02-11T13:27:51;102324.78;;;2.82;51.99
33153;BME280;19509;43.862;26.176;2023-02-11T13:30:26;102328.91;;;2.98;52.23
33153;BME280;19509;43.862;26.176;2023-02-11T13:37:52;102314.03;;;2.95;51.54
33153;BME280;19509;43.862;26.176;2023-02-11T13:42:52;102311.34;;;2.84;51.80
33153;BME280;19509;43.862;26.176;2023-02-11T13:45:39;102315.84;;;2.83;52.52
33153;BME280;19509;43.862;26.176;2023-02-11T13:50:46;102307.63;;;2.87;52.24
33153;BME280;19509;43.862;26.176;2023-02-11T13:53:13;102303.50;;;2.82;51.96
33153;BME280;19509;43.862;26.176;2023-02-11T13:55:42;102303.69;;;2.68;51.62
33153;BME280;19509;43.862;26.176;2023-02-11T13:58:17;102311.81;;;2.67;51.52
33153;BME280;19509;43.862;26.176;2023-02-11T14:00:47;102305.13;;;2.61;51.66
33153;BME280;19509;43.862;26.176;2023-02-11T14:16:30;102287.72;;;2.57;53.10
33153;BME280;19509;43.862;26.176;2023-02-11T14:18:56;102286.19;;;2.66;54.01
33153;BME280;19509;43.862;26.176;2023-02-11T14:26:35;102293.28;;;2.54;54.63
33153;BME280;19509;43.862;26.176;2023-02-11T14:29:13;102291.06;;;2.48;54.58
33153;BME280;19509;43.862;26.176;2023-02-11T14:32:33;102282.47;;;2.44;54.83
33153;BME280;19509;43.862;26.176;2023-02-11T14:34:59;102275.00;;;2.38;55.00
33153;BME280;19509;43.862;26.176;2023-02-11T14:37:56;102283.06;;;2.36;55.47
33153;BME280;19509;43.862;26.176;2023-02-11T14:40:30;102280.16;;;2.28;54.94
33153;BME280;19509;43.862;26.176;2023-02-11T14:43:02;102274.22;;;2.25;54.58
33153;BME280;19509;43.862;26.176;2023-02-11T14:45:33;102271.97;;;2.07;55.58
33153;BME280;19509;43.862;26.176;2023-02-11T14:48:03;102263.75;;;2.10;55.67
33153;BME280;19509;43.862;26.176;2023-02-11T14:50:45;102258.94;;;2.04;56.03
33153;BME280;19509;43.862;26.176;2023-02-11T14:53:16;102256.81;;;1.97;55.38
33153;BME280;19509;43.862;26.176;2023-02-11T14:55:45;102248.31;;;1.80;55.73
33153;BME280;19509;43.862;26.176;2023-02-11T14:58:22;102252.13;;;1.76;56.49
33153;BME280;19509;43.862;26.176;2023-02-11T15:01:04;102248.00;;;1.72;56.65
33153;BME280;19509;43.862;26.176;2023-02-11T15:03:38;102238.63;;;1.55;56.53
33153;BME280;19509;43.862;26.176;2023-02-11T15:06:06;102238.41;;;1.46;57.71